createdAt,value
2018-11-07T00:01:28.210Z,76.71
2018-11-07T00:03:56.619Z,77.16
2018-11-07T00:06:24.960Z,76.69
2018-11-07T00:08:53.336Z,76.52
2018-11-07T00:11:21.631Z,76.78
2018-11-07T00:13:50.009Z,76.65
2018-11-07T00:16:18.409Z,76.82
2018-11-07T00:18:46.746Z,77.01
2018-11-07T00:21:15.052Z,76.94
2018-11-07T00:23:43.423Z,76.66
2018-11-07T00:26:11.821Z,76.80
2018-11-07T00:28:40.111Z,77.30
2018-11-07T00:31:08.408Z,77.09
2018-11-07T00:33:36.706Z,76.45
2018-11-07T00:36:05.445Z,76.58
2018-11-07T00:38:33.840Z,76.90
2018-11-07T00:41:02.127Z,76.99
2018-11-07T00:43:30.497Z,77.38
2018-11-07T00:45:58.809Z,76.81
2018-11-07T00:48:27.092Z,76.97
2018-11-07T00:50:55.436Z,77.24
2018-11-07T00:53:23.769Z,77.21
2018-11-07T00:55:52.088Z,77.17
2018-11-07T00:58:20.410Z,76.99
2018-11-07T01:00:48.713Z,77.29
2018-11-07T01:03:17.029Z,77.29
2018-11-07T01:05:45.374Z,77.70
2018-11-07T01:08:13.739Z,77.72
2018-11-07T01:10:42.033Z,77.77
2018-11-07T01:13:10.412Z,77.90
2018-11-07T01:15:38.726Z,77.72
2018-11-07T01:18:07.130Z,77.62
2018-11-07T01:20:35.482Z,77.48
2018-11-07T01:23:03.783Z,77.54
2018-11-07T01:25:32.116Z,77.39
2018-11-07T01:28:00.439Z,77.59
2018-11-07T01:30:28.780Z,77.66
2018-11-07T01:32:57.195Z,78.00
2018-11-07T01:35:25.494Z,77.73
2018-11-07T01:37:53.807Z,77.57
2018-11-07T01:40:22.112Z,77.56
2018-11-07T01:42:50.456Z,77.73
2018-11-07T01:45:18.755Z,77.42
2018-11-07T01:47:47.117Z,77.51
2018-11-07T01:50:15.458Z,77.77
2018-11-07T01:52:43.778Z,77.77
2018-11-07T01:55:12.162Z,77.47
2018-11-07T01:57:40.470Z,77.51
2018-11-07T02:00:10.662Z,77.13
2018-11-07T02:02:39.111Z,77.11
2018-11-07T02:05:07.789Z,77.14
2018-11-07T02:07:36.155Z,77.47
2018-11-07T02:10:05.542Z,77.54
2018-11-07T02:12:33.902Z,77.33
2018-11-07T02:15:02.295Z,77.40
2018-11-07T02:17:30.628Z,77.62
2018-11-07T02:19:58.991Z,78.06
2018-11-07T02:22:27.343Z,78.54
2018-11-07T02:24:55.773Z,78.15
2018-11-07T02:27:24.094Z,78.04
2018-11-07T02:29:52.425Z,78.43
2018-11-07T02:32:20.773Z,78.17
2018-11-07T02:34:49.166Z,77.89
2018-11-07T02:37:17.542Z,77.33
2018-11-07T02:39:45.897Z,78.44
2018-11-07T02:42:14.295Z,77.87
2018-11-07T02:44:42.576Z,78.10
2018-11-07T02:47:10.870Z,78.12
2018-11-07T02:49:39.237Z,78.33
2018-11-07T02:52:07.581Z,78.12
2018-11-07T02:54:35.980Z,78.22
2018-11-07T02:57:04.400Z,78.19
2018-11-07T02:59:32.750Z,78.49
2018-11-07T03:02:01.083Z,78.75
2018-11-07T03:04:29.502Z,78.49
2018-11-07T03:06:57.962Z,78.67
2018-11-07T03:09:26.358Z,78.77
2018-11-07T03:11:54.663Z,78.53
2018-11-07T03:14:23.028Z,78.44
2018-11-07T03:16:51.325Z,78.60
2018-11-07T03:19:19.682Z,78.57
2018-11-07T03:21:48.067Z,78.91
2018-11-07T03:24:16.403Z,78.50
2018-11-07T03:26:44.779Z,78.82
2018-11-07T03:29:13.201Z,79.12
2018-11-07T03:31:41.507Z,78.85
2018-11-07T03:34:09.806Z,78.99
2018-11-07T03:36:38.106Z,79.56
2018-11-07T03:39:08.932Z,79.44
2018-11-07T03:41:37.277Z,79.90
2018-11-07T03:44:06.154Z,79.88
2018-11-07T03:46:34.435Z,79.59
2018-11-07T03:49:02.788Z,79.44
2018-11-07T03:51:31.115Z,79.40
2018-11-07T03:53:59.431Z,79.66
2018-11-07T03:56:27.752Z,79.68
2018-11-07T03:58:56.437Z,79.16
2018-11-07T04:01:24.801Z,79.39
2018-11-07T04:03:53.114Z,79.23
2018-11-07T04:06:21.558Z,78.82
2018-11-07T04:08:49.852Z,79.20
2018-11-07T04:11:18.237Z,79.16
2018-11-07T04:13:46.534Z,79.41
2018-11-07T04:16:14.900Z,79.82
2018-11-07T04:18:43.222Z,79.21
2018-11-07T04:21:11.523Z,79.64
2018-11-07T04:23:39.886Z,79.69
2018-11-07T04:26:08.278Z,80.43
2018-11-07T04:28:36.669Z,80.17
2018-11-07T04:31:05.021Z,80.27
2018-11-07T04:33:33.345Z,79.75
2018-11-07T04:36:01.666Z,80.03
2018-11-07T04:38:30.031Z,79.76
2018-11-07T04:40:58.348Z,80.21
2018-11-07T04:43:26.703Z,79.55
2018-11-07T04:45:55.009Z,79.84
2018-11-07T04:48:23.380Z,79.99
2018-11-07T04:50:51.664Z,80.21
2018-11-07T04:53:20.037Z,80.18
2018-11-07T04:55:48.429Z,80.30
2018-11-07T04:58:16.723Z,79.88
2018-11-07T05:00:45.083Z,80.04
2018-11-07T05:03:13.396Z,80.51
2018-11-07T05:05:41.674Z,80.57
2018-11-07T05:08:10.021Z,80.96
2018-11-07T05:10:38.331Z,80.76
2018-11-07T05:13:06.667Z,81.24
2018-11-07T05:15:35.711Z,81.14
2018-11-07T05:18:04.031Z,80.83
2018-11-07T05:20:32.375Z,81.00
2018-11-07T05:23:00.672Z,80.64
2018-11-07T05:25:28.962Z,80.38
2018-11-07T05:27:57.327Z,80.32
2018-11-07T05:30:25.620Z,80.25
2018-11-07T05:32:53.947Z,80.69
2018-11-07T05:35:22.241Z,80.31
2018-11-07T05:37:50.532Z,80.61
2018-11-07T05:40:18.956Z,80.83
2018-11-07T05:42:47.238Z,80.45
2018-11-07T05:45:15.606Z,80.79
2018-11-07T05:47:43.886Z,81.22
2018-11-07T05:50:12.203Z,81.43
2018-11-07T05:52:40.539Z,81.08
2018-11-07T05:55:09.631Z,80.79
2018-11-07T05:57:37.933Z,81.01
2018-11-07T06:00:07.843Z,81.38
2018-11-07T06:02:36.168Z,81.59
2018-11-07T06:05:04.546Z,81.30
2018-11-07T06:07:32.939Z,81.46
2018-11-07T06:10:01.285Z,81.41
2018-11-07T06:12:29.632Z,81.29
2018-11-07T06:14:57.967Z,81.39
2018-11-07T06:17:26.281Z,80.74
2018-11-07T06:19:54.633Z,80.75
2018-11-07T06:22:22.976Z,81.46
2018-11-07T06:24:51.369Z,81.54
2018-11-07T06:27:19.764Z,81.76
2018-11-07T06:29:48.080Z,81.84
2018-11-07T06:32:16.446Z,81.37
2018-11-07T06:34:44.758Z,81.68
2018-11-07T06:37:13.137Z,81.58
2018-11-07T06:39:41.497Z,81.86
2018-11-07T06:42:09.834Z,81.76
2018-11-07T06:44:38.241Z,81.56
2018-11-07T06:47:06.799Z,81.25
2018-11-07T06:49:35.114Z,81.73
2018-11-07T06:52:03.454Z,81.72
2018-11-07T06:54:31.778Z,81.82
2018-11-07T06:57:00.047Z,81.57
2018-11-07T06:59:28.393Z,81.35
2018-11-07T07:01:56.736Z,81.37
2018-11-07T07:04:25.032Z,80.98
2018-11-07T07:06:53.377Z,80.87
2018-11-07T07:09:21.685Z,81.49
2018-11-07T07:11:50.072Z,81.02
2018-11-07T07:14:18.374Z,80.96
2018-11-07T07:16:46.696Z,81.19
2018-11-07T07:19:14.990Z,81.22
2018-11-07T07:21:43.343Z,81.23
2018-11-07T07:24:11.705Z,81.24
2018-11-07T07:26:40.078Z,81.25
2018-11-07T07:29:08.535Z,81.36
2018-11-07T07:31:36.830Z,81.40
2018-11-07T07:34:05.166Z,80.86
2018-11-07T07:36:33.557Z,81.10
2018-11-07T07:39:01.945Z,81.18
2018-11-07T07:41:30.346Z,80.84
2018-11-07T07:43:58.756Z,80.69
2018-11-07T07:46:27.129Z,79.97
2018-11-07T07:48:55.465Z,80.79
2018-11-07T07:51:23.878Z,80.80
2018-11-07T07:53:52.364Z,80.98
2018-11-07T07:56:20.763Z,80.68
2018-11-07T07:58:49.218Z,80.10
2018-11-07T08:01:17.573Z,80.21
2018-11-07T08:03:45.955Z,79.86
2018-11-07T08:06:14.373Z,80.25
2018-11-07T08:08:42.702Z,80.25
2018-11-07T08:11:11.034Z,80.15
2018-11-07T08:13:39.414Z,79.76
2018-11-07T08:16:07.758Z,79.73
2018-11-07T08:18:36.145Z,79.70
2018-11-07T08:21:04.799Z,79.59
2018-11-07T08:23:33.182Z,79.62
2018-11-07T08:26:01.709Z,80.04
2018-11-07T08:28:30.066Z,79.89
2018-11-07T08:30:58.531Z,79.80
2018-11-07T08:33:26.838Z,79.75
2018-11-07T08:35:55.178Z,79.96
2018-11-07T08:38:23.563Z,80.19
2018-11-07T08:40:51.994Z,80.21
2018-11-07T08:43:20.400Z,80.17
2018-11-07T08:45:48.744Z,80.37
2018-11-07T08:48:17.189Z,79.82
2018-11-07T08:50:45.483Z,79.74
2018-11-07T08:53:13.941Z,79.78
2018-11-07T08:55:42.469Z,79.00
2018-11-07T08:58:10.889Z,78.99
2018-11-07T09:00:39.266Z,78.75
2018-11-07T09:03:07.636Z,79.01
2018-11-07T09:05:35.952Z,78.44
2018-11-07T09:08:04.339Z,78.30
2018-11-07T09:10:32.698Z,78.30
2018-11-07T09:13:01.132Z,77.85
2018-11-07T09:15:29.477Z,77.74
2018-11-07T09:17:57.786Z,77.95
2018-11-07T09:20:26.091Z,77.20
2018-11-07T09:22:54.419Z,77.64
2018-11-07T09:25:22.760Z,77.68
2018-11-07T09:27:51.103Z,77.25
2018-11-07T09:30:20.842Z,76.84
2018-11-07T09:32:49.224Z,76.80
2018-11-07T09:35:17.878Z,76.49
2018-11-07T09:37:46.226Z,76.09
2018-11-07T09:40:16.937Z,76.00
2018-11-07T09:42:46.177Z,75.92
2018-11-07T09:45:15.883Z,75.80
2018-11-07T09:47:44.852Z,75.99
2018-11-07T09:50:13.954Z,75.95
2018-11-07T09:52:42.572Z,75.15
2018-11-07T09:55:12.578Z,75.42
2018-11-07T09:57:41.226Z,74.86
2018-11-07T10:00:13.265Z,74.94
2018-11-07T10:02:41.943Z,74.35
2018-11-07T10:05:10.819Z,74.24
2018-11-07T10:07:40.048Z,74.95
2018-11-07T10:10:10.662Z,74.99
2018-11-07T10:12:39.832Z,74.33
2018-11-07T10:15:08.603Z,74.42
2018-11-07T10:17:37.119Z,73.76
2018-11-07T10:20:08.656Z,73.81
2018-11-07T10:22:37.071Z,74.44
2018-11-07T10:25:06.040Z,74.13
2018-11-07T10:27:34.712Z,73.47
2018-11-07T10:30:03.250Z,73.51
2018-11-07T10:32:31.194Z,73.31
2018-11-07T10:34:59.528Z,72.44
2018-11-07T10:37:32.369Z,71.73
2018-11-07T10:39:56.341Z,71.41
2018-11-07T10:42:24.614Z,70.52
2018-11-07T10:44:52.936Z,70.71
2018-11-07T10:47:21.277Z,71.11
2018-11-07T10:49:49.833Z,71.17
2018-11-07T10:52:18.193Z,70.95
2018-11-07T10:54:46.571Z,71.37
2018-11-07T10:57:14.981Z,70.72
2018-11-07T10:59:43.333Z,69.80
2018-11-07T11:02:17.002Z,69.01
2018-11-07T11:04:45.398Z,69.39
2018-11-07T11:07:13.791Z,69.01
2018-11-07T11:09:42.172Z,68.87
2018-11-07T11:12:10.574Z,68.80
2018-11-07T11:14:38.867Z,69.77
2018-11-07T11:17:07.184Z,69.54
2018-11-07T11:19:35.580Z,69.40
2018-11-07T11:22:03.964Z,68.59
2018-11-07T11:24:32.358Z,68.63
2018-11-07T11:27:00.735Z,68.52
2018-11-07T11:29:29.360Z,68.59
2018-11-07T11:31:57.702Z,68.64
2018-11-07T11:34:26.147Z,68.26
2018-11-07T11:36:54.479Z,68.62
2018-11-07T11:39:22.854Z,68.11
2018-11-07T11:41:51.187Z,68.31
2018-11-07T11:44:19.616Z,68.26
2018-11-07T11:46:48.029Z,68.46
2018-11-07T11:49:16.487Z,67.49
2018-11-07T11:51:44.813Z,68.39
2018-11-07T11:54:13.191Z,67.98
2018-11-07T11:56:41.570Z,67.81
2018-11-07T11:59:10.058Z,68.24
2018-11-07T12:01:38.318Z,67.39
2018-11-07T12:04:06.652Z,66.92
2018-11-07T12:06:35.084Z,67.84
2018-11-07T12:09:03.903Z,68.08
2018-11-07T12:11:32.159Z,66.72
2018-11-07T12:14:00.544Z,67.78
2018-11-07T12:16:28.889Z,67.45
2018-11-07T12:18:57.261Z,67.62
2018-11-07T12:21:25.689Z,67.16
2018-11-07T12:23:53.988Z,67.25
2018-11-07T12:26:22.295Z,67.41
2018-11-07T12:28:50.641Z,66.47
2018-11-07T12:31:19.036Z,66.12
2018-11-07T12:33:47.379Z,66.02
2018-11-07T12:36:15.800Z,65.90
2018-11-07T12:38:44.161Z,65.55
2018-11-07T12:41:12.645Z,65.67
2018-11-07T12:43:40.943Z,65.62
2018-11-07T12:46:09.304Z,65.24
2018-11-07T12:48:37.670Z,66.31
2018-11-07T12:51:06.210Z,66.04
2018-11-07T12:53:34.567Z,66.27
2018-11-07T12:56:02.875Z,66.66
2018-11-07T12:58:31.251Z,67.28
2018-11-07T13:00:59.565Z,67.16
2018-11-07T13:03:27.947Z,67.91
2018-11-07T13:05:56.294Z,66.47
2018-11-07T13:08:24.646Z,66.66
2018-11-07T13:10:53.015Z,66.74
2018-11-07T13:13:21.441Z,66.94
2018-11-07T13:15:49.817Z,66.12
2018-11-07T13:18:18.169Z,65.98
2018-11-07T13:20:46.512Z,65.44
2018-11-07T13:23:14.873Z,66.12
2018-11-07T13:25:43.198Z,66.26
2018-11-07T13:28:11.579Z,63.79
2018-11-07T13:30:39.872Z,62.88
2018-11-07T13:33:08.292Z,61.80
2018-11-07T13:35:36.654Z,60.71
2018-11-07T13:38:05.137Z,61.08
2018-11-07T13:40:33.353Z,60.13
2018-11-07T13:43:01.699Z,60.88
2018-11-07T13:45:30.129Z,60.30
2018-11-07T13:47:58.515Z,59.45
2018-11-07T13:50:26.799Z,60.09
2018-11-07T13:52:55.212Z,60.07
2018-11-07T13:55:23.522Z,59.18
2018-11-07T13:57:51.899Z,59.32
2018-11-07T14:00:22.450Z,58.50
2018-11-07T14:02:51.568Z,58.55
2018-11-07T14:05:19.971Z,57.21
2018-11-07T14:07:48.402Z,57.64
2018-11-07T14:10:20.843Z,57.77
2018-11-07T14:12:49.367Z,57.25
2018-11-07T14:15:17.766Z,56.34
2018-11-07T14:17:46.397Z,56.78
2018-11-07T14:20:14.802Z,57.08
2018-11-07T14:22:43.149Z,56.62
2018-11-07T14:25:12.173Z,55.97
2018-11-07T14:27:40.696Z,57.46
2018-11-07T14:30:11.460Z,57.17
2018-11-07T14:32:41.495Z,58.14
2018-11-07T14:35:09.833Z,56.88
2018-11-07T14:37:38.174Z,58.10
2018-11-07T14:40:06.746Z,58.47
2018-11-07T14:42:35.083Z,58.72
2018-11-07T14:45:03.383Z,58.84
2018-11-07T14:47:31.692Z,58.60
2018-11-07T14:50:00.145Z,59.26
2018-11-07T14:52:28.580Z,59.11
2018-11-07T14:54:56.972Z,58.83
2018-11-07T14:57:25.338Z,58.85
2018-11-07T14:59:53.635Z,59.10
2018-11-07T15:02:21.975Z,58.16
2018-11-07T15:04:50.421Z,59.29
2018-11-07T15:07:18.859Z,58.87
2018-11-07T15:09:53.412Z,59.24
2018-11-07T15:12:21.697Z,59.06
2018-11-07T15:14:50.185Z,59.16
2018-11-07T15:17:18.540Z,58.78
2018-11-07T15:19:46.849Z,59.39
2018-11-07T15:22:15.319Z,59.26
2018-11-07T15:24:43.836Z,59.18
2018-11-07T15:27:12.140Z,59.57
2018-11-07T15:29:40.463Z,59.80
2018-11-07T15:32:08.829Z,59.66
2018-11-07T15:34:37.226Z,60.85
2018-11-07T15:37:06.019Z,61.06
2018-11-07T15:39:34.460Z,60.74
2018-11-07T15:42:02.773Z,60.93
2018-11-07T15:44:31.144Z,61.56
2018-11-07T15:46:59.546Z,61.71
2018-11-07T15:49:27.999Z,61.46
2018-11-07T15:51:56.648Z,61.62
2018-11-07T15:54:24.931Z,61.86
2018-11-07T15:56:53.249Z,61.86
2018-11-07T15:59:21.607Z,61.94
2018-11-07T16:01:49.948Z,62.72
2018-11-07T16:04:18.345Z,62.28
2018-11-07T16:06:46.743Z,62.57
2018-11-07T16:09:15.121Z,62.38
2018-11-07T16:11:43.464Z,62.43
2018-11-07T16:14:11.818Z,62.72
2018-11-07T16:16:40.197Z,62.76
2018-11-07T16:19:08.555Z,62.76
2018-11-07T16:21:36.941Z,63.25
2018-11-07T16:24:06.221Z,62.67
2018-11-07T16:26:34.544Z,62.44
2018-11-07T16:29:02.967Z,62.28
2018-11-07T16:31:31.498Z,63.08
2018-11-07T16:33:59.833Z,62.82
2018-11-07T16:36:28.210Z,63.09
2018-11-07T16:38:56.616Z,62.95
2018-11-07T16:41:25.088Z,63.99
2018-11-07T16:43:53.326Z,63.29
2018-11-07T16:46:21.683Z,64.01
2018-11-07T16:48:50.089Z,64.48
2018-11-07T16:51:18.515Z,65.19
2018-11-07T16:53:46.855Z,65.76
2018-11-07T16:56:15.261Z,65.20
2018-11-07T16:58:43.658Z,65.63
2018-11-07T17:01:12.004Z,65.55
2018-11-07T17:03:40.346Z,65.61
2018-11-07T17:06:08.699Z,65.91
2018-11-07T17:08:37.014Z,66.64
2018-11-07T17:11:05.710Z,66.48
2018-11-07T17:13:34.046Z,66.28
2018-11-07T17:16:02.602Z,66.75
2018-11-07T17:18:30.999Z,66.06
2018-11-07T17:20:59.446Z,66.28
2018-11-07T17:23:27.826Z,66.70
2018-11-07T17:25:56.163Z,66.16
2018-11-07T17:28:24.541Z,66.50
2018-11-07T17:30:52.990Z,66.72
2018-11-07T17:33:21.339Z,65.93
2018-11-07T17:35:49.862Z,66.44
2018-11-07T17:38:18.230Z,66.69
2018-11-07T17:40:46.634Z,66.61
2018-11-07T17:43:14.959Z,66.72
2018-11-07T17:45:43.334Z,67.07
2018-11-07T17:48:11.802Z,66.80
2018-11-07T17:50:40.120Z,66.66
2018-11-07T17:53:08.466Z,67.10
2018-11-07T17:55:37.466Z,67.12
2018-11-07T17:58:06.107Z,67.38
2018-11-07T18:00:35.262Z,67.54
2018-11-07T18:03:03.852Z,67.43
2018-11-07T18:05:32.240Z,67.47
2018-11-07T18:08:00.611Z,67.44
2018-11-07T18:10:29.165Z,67.79
2018-11-07T18:12:57.695Z,67.98
2018-11-07T18:15:26.095Z,67.84
2018-11-07T18:17:54.473Z,68.22
2018-11-07T18:20:22.831Z,67.57
2018-11-07T18:22:51.195Z,68.03
2018-11-07T18:25:19.584Z,68.26
2018-11-07T18:27:48.073Z,68.09
2018-11-07T18:30:17.391Z,68.21
2018-11-07T18:32:46.351Z,68.50
2018-11-07T18:35:16.934Z,69.22
2018-11-07T18:37:45.510Z,68.55
2018-11-07T18:40:15.527Z,68.76
2018-11-07T18:42:43.861Z,68.71
2018-11-07T18:45:12.893Z,68.76
2018-11-07T18:47:42.805Z,69.19
2018-11-07T18:50:12.670Z,68.91
2018-11-07T18:52:41.174Z,69.39
2018-11-07T18:55:11.224Z,69.19
2018-11-07T18:57:39.680Z,69.43
2018-11-07T19:00:10.207Z,69.88
2018-11-07T19:02:38.707Z,70.02
2018-11-07T19:05:07.625Z,69.60
2018-11-07T19:07:36.454Z,69.43
2018-11-07T19:10:06.527Z,69.58
2018-11-07T19:12:34.938Z,69.79
2018-11-07T19:15:03.313Z,69.67
2018-11-07T19:17:31.689Z,70.14
2018-11-07T19:20:00.213Z,70.15
2018-11-07T19:22:28.582Z,69.94
2018-11-07T19:24:56.958Z,69.53
2018-11-07T19:27:25.330Z,69.51
2018-11-07T19:29:53.661Z,69.95
2018-11-07T19:32:22.066Z,69.76
2018-11-07T19:34:50.425Z,69.85
2018-11-07T19:37:18.916Z,69.96
2018-11-07T19:39:47.561Z,70.16
2018-11-07T19:42:16.054Z,70.86
2018-11-07T19:44:44.584Z,70.08
2018-11-07T19:47:13.052Z,69.85
2018-11-07T19:49:41.650Z,69.96
2018-11-07T19:52:10.007Z,69.58
2018-11-07T19:54:38.381Z,70.02
2018-11-07T19:57:07.353Z,70.11
2018-11-07T19:59:35.891Z,69.88
2018-11-07T20:02:04.300Z,70.16
2018-11-07T20:04:32.889Z,70.21
2018-11-07T20:07:01.424Z,69.75
2018-11-07T20:09:29.925Z,69.80
2018-11-07T20:11:58.719Z,70.01
2018-11-07T20:14:27.078Z,69.74
2018-11-07T20:16:55.757Z,69.38
2018-11-07T20:19:24.254Z,69.46
2018-11-07T20:21:52.733Z,69.09
2018-11-07T20:24:21.221Z,69.04
2018-11-07T20:26:49.649Z,69.24
2018-11-07T20:29:18.248Z,69.31
2018-11-07T20:31:47.394Z,69.98
2018-11-07T20:34:15.835Z,69.62
2018-11-07T20:36:44.293Z,69.64
2018-11-07T20:39:13.825Z,69.63
2018-11-07T20:41:42.658Z,69.72
2018-11-07T20:44:11.229Z,69.85
2018-11-07T20:46:40.774Z,70.21
2018-11-07T20:49:09.549Z,70.34
2018-11-07T20:51:38.194Z,70.37
2018-11-07T20:54:06.675Z,70.32
2018-11-07T20:56:35.159Z,69.70
2018-11-07T20:59:03.659Z,69.45
2018-11-07T21:01:32.212Z,70.08
2018-11-07T21:04:00.978Z,70.03
2018-11-07T21:06:29.460Z,70.24
2018-11-07T21:08:57.958Z,69.80
2018-11-07T21:11:26.452Z,69.96
2018-11-07T21:13:54.975Z,70.11
2018-11-07T21:16:23.486Z,70.38
2018-11-07T21:18:51.924Z,70.19
2018-11-07T21:21:21.285Z,69.60
2018-11-07T21:23:49.699Z,69.73
2018-11-07T21:26:18.221Z,68.96
2018-11-07T21:28:46.732Z,68.48
2018-11-07T21:31:15.248Z,68.50
2018-11-07T21:33:44.478Z,68.49
2018-11-07T21:36:13.110Z,68.16
2018-11-07T21:38:41.626Z,68.29
2018-11-07T21:41:10.202Z,68.22
2018-11-07T21:43:38.843Z,68.34
2018-11-07T21:46:07.203Z,68.42
2018-11-07T21:48:35.574Z,67.87
2018-11-07T21:51:04.000Z,67.44
2018-11-07T21:53:32.350Z,67.61
2018-11-07T21:56:00.711Z,67.97
2018-11-07T21:58:29.133Z,66.88
2018-11-07T22:00:57.513Z,67.47
2018-11-07T22:03:25.960Z,66.94
2018-11-07T22:05:54.371Z,67.07
2018-11-07T22:08:22.739Z,65.94
2018-11-07T22:10:51.057Z,66.13
2018-11-07T22:13:19.523Z,66.34
2018-11-07T22:15:47.946Z,66.19
2018-11-07T22:18:16.304Z,66.35
2018-11-07T22:20:44.814Z,66.74
2018-11-07T22:23:13.156Z,66.65
2018-11-07T22:25:41.558Z,66.99
2018-11-07T22:28:10.047Z,66.86
2018-11-07T22:30:38.397Z,66.47
2018-11-07T22:33:06.757Z,66.66
2018-11-07T22:35:35.114Z,66.59
2018-11-07T22:38:03.482Z,66.41
2018-11-07T22:40:31.890Z,66.45
2018-11-07T22:43:00.266Z,66.71
2018-11-07T22:45:28.674Z,66.56
2018-11-07T22:47:57.075Z,66.02
2018-11-07T22:50:25.428Z,65.44
2018-11-07T22:52:53.830Z,65.42
2018-11-07T22:55:22.219Z,65.41
2018-11-07T22:57:50.614Z,65.98
2018-11-07T23:00:24.433Z,65.86
2018-11-07T23:02:54.076Z,65.81
2018-11-07T23:05:22.451Z,66.15
2018-11-07T23:07:51.193Z,65.65
2018-11-07T23:10:19.625Z,65.86
2018-11-07T23:12:48.560Z,65.14
2018-11-07T23:15:22.186Z,65.19
2018-11-07T23:17:51.006Z,64.81
2018-11-07T23:20:19.324Z,65.22
2018-11-07T23:22:47.719Z,65.54
2018-11-07T23:25:16.122Z,65.32
2018-11-07T23:27:44.713Z,65.56
2018-11-07T23:30:13.080Z,65.76
2018-11-07T23:32:41.490Z,65.59
2018-11-07T23:35:09.820Z,65.62
2018-11-07T23:37:38.116Z,65.42
2018-11-07T23:40:06.800Z,65.76
2018-11-07T23:42:35.150Z,65.92
2018-11-07T23:45:03.610Z,66.21
2018-11-07T23:47:32.008Z,65.83
2018-11-07T23:50:00.305Z,66.31
2018-11-07T23:52:33.902Z,66.39
2018-11-07T23:55:02.318Z,66.51
2018-11-07T23:57:30.854Z,66.40
2018-11-07T23:59:59.108Z,66.25
